Meldrim, Georgia
Current Conditions -  °F | °C
As of 8:53 AM on Sunday 23 Nov 2014 (Local Time) from KSAV Reporting Station
Light Rain Light Rain  
Wind Chill: 64°   Ceiling: 500
Heat Index: 64°   Visibility: 5mi
Dew Point: 60°   Wind: 16mph
Humidity: 87%   Direction: 80°E
Pressure: 30.05"   Gusts: NA
Location:  32.14°N, 81.38°W
Report Text: KSAV 231353Z 08014KT 5SM -RA BR FEW003 BKN005 OVC008 18/16 A3005 RMK AO2 SLP175 P0009 T01780156
Loading
Personal Weather Stations






























Interactive Weather Map New forecast layout! Learn more

10-Day Weather Forecast

Advertisements
Track Severe Weather on mobile